createdAt,value
2022-11-14T00:01:34.369Z,99722.80
2022-11-14T00:02:56.022Z,99721.57
2022-11-14T00:04:16.605Z,99728.95
2022-11-14T00:05:42.669Z,99727.19
2022-11-14T00:07:03.310Z,99730.66
2022-11-14T00:08:25.383Z,99725.63
2022-11-14T00:09:45.678Z,99726.94
2022-11-14T00:11:06.075Z,99733.45
2022-11-14T00:12:26.448Z,99727.20
2022-11-14T00:13:46.951Z,99728.45
2022-11-14T00:15:08.274Z,99726.52
2022-11-14T00:16:28.655Z,99732.06
2022-11-14T00:17:48.765Z,99731.33
2022-11-14T00:19:09.151Z,99727.33
2022-11-14T00:20:29.362Z,99724.13
2022-11-14T00:21:49.364Z,99722.06
2022-11-14T00:23:09.763Z,99721.11
2022-11-14T00:24:30.235Z,99723.80
2022-11-14T00:25:50.388Z,99722.94
2022-11-14T00:27:10.725Z,99724.96
2022-11-14T00:28:31.314Z,99724.46
2022-11-14T00:29:52.391Z,99722.41
2022-11-14T00:31:12.919Z,99721.86
2022-11-14T00:32:33.512Z,99723.98
2022-11-14T00:33:54.048Z,99723.98
2022-11-14T00:35:14.381Z,99725.75
2022-11-14T00:36:34.842Z,99728.55
2022-11-14T00:37:55.311Z,99729.98
2022-11-14T00:39:15.707Z,99727.83
2022-11-14T00:40:35.825Z,99727.77
2022-11-14T00:41:56.153Z,99723.39
2022-11-14T00:43:16.534Z,99722.67
2022-11-14T00:44:37.404Z,99718.36
2022-11-14T00:45:58.014Z,99719.92
2022-11-14T00:47:18.044Z,99719.27
2022-11-14T00:48:38.099Z,99720.67
2022-11-14T00:49:58.286Z,99726.58
2022-11-14T00:51:18.463Z,99725.34
2022-11-14T00:52:38.830Z,99727.29
2022-11-14T00:53:59.014Z,99726.02
2022-11-14T00:55:19.209Z,99721.05
2022-11-14T00:56:39.660Z,99719.58
2022-11-14T00:57:59.772Z,99712.45
2022-11-14T00:59:20.154Z,99706.84
2022-11-14T01:00:40.743Z,99701.08
2022-11-14T01:02:01.567Z,99701.34
2022-11-14T01:03:21.837Z,99704.16
2022-11-14T01:04:42.261Z,99699.45
2022-11-14T01:06:08.313Z,99702.71
2022-11-14T01:07:28.428Z,99701.19
2022-11-14T01:08:51.076Z,99700.18
2022-11-14T01:10:11.690Z,99700.40
2022-11-14T01:11:31.840Z,99691.91
2022-11-14T01:12:51.824Z,99688.04
2022-11-14T01:14:12.500Z,99686.55
2022-11-14T01:15:33.140Z,99685.56
2022-11-14T01:16:53.873Z,99686.56
2022-11-14T01:18:18.711Z,99688.53
2022-11-14T01:19:39.252Z,99686.23
2022-11-14T01:20:59.921Z,99680.04
2022-11-14T01:22:20.787Z,99678.28
2022-11-14T01:23:41.545Z,99673.75
2022-11-14T01:25:01.597Z,99672.15
2022-11-14T01:26:21.863Z,99671.16
2022-11-14T01:27:42.417Z,99670.62
2022-11-14T01:29:02.717Z,99668.44
2022-11-14T01:30:23.418Z,99666.67
2022-11-14T01:31:43.721Z,99666.40
2022-11-14T01:33:05.446Z,99661.40
2022-11-14T01:34:26.616Z,99661.17
2022-11-14T01:35:47.097Z,99660.23
2022-11-14T01:37:07.488Z,99658.70
2022-11-14T01:38:28.198Z,99657.92
2022-11-14T01:39:48.917Z,99658.65
2022-11-14T01:41:13.926Z,99656.13
2022-11-14T01:42:34.128Z,99656.91
2022-11-14T01:43:54.660Z,99656.15
2022-11-14T01:45:53.705Z,99653.73
2022-11-14T01:47:19.272Z,99655.08
2022-11-14T01:49:15.968Z,99653.73
2022-11-14T01:50:36.500Z,99652.55
2022-11-14T01:52:08.246Z,99647.77
2022-11-14T01:53:29.044Z,99645.86
2022-11-14T01:54:54.491Z,99644.02
2022-11-14T01:56:20.172Z,99646.28
2022-11-14T01:57:47.034Z,99640.58
2022-11-14T01:59:11.460Z,99638.74
2022-11-14T02:00:31.774Z,99638.55
2022-11-14T02:01:56.334Z,99637.17
2022-11-14T02:03:17.575Z,99635.48
2022-11-14T02:04:43.088Z,99636.73
2022-11-14T02:06:06.391Z,99634.88
2022-11-14T02:07:32.403Z,99632.17
2022-11-14T02:08:54.841Z,99627.97
2022-11-14T02:10:20.016Z,99623.05
2022-11-14T02:11:45.086Z,99624.02
2022-11-14T02:13:06.105Z,99619.27
2022-11-14T02:14:28.714Z,99624.85
2022-11-14T02:15:48.914Z,99627.55
2022-11-14T02:18:50.069Z,99632.71
2022-11-14T02:20:10.722Z,99629.70
2022-11-14T02:21:31.380Z,99627.19
2022-11-14T02:22:51.748Z,99622.29
2022-11-14T02:24:13.528Z,99623.16
2022-11-14T02:25:33.967Z,99620.09
2022-11-14T02:26:54.168Z,99618.98
2022-11-14T02:28:14.482Z,99617.13
2022-11-14T02:29:35.369Z,99618.45
2022-11-14T02:30:56.516Z,99618.89
2022-11-14T02:32:16.973Z,99617.37
2022-11-14T02:33:37.581Z,99615.72
2022-11-14T02:34:57.903Z,99614.73
2022-11-14T02:36:18.285Z,99608.58
2022-11-14T02:37:39.825Z,99610.89
2022-11-14T02:39:00.356Z,99611.27
2022-11-14T02:40:23.993Z,99608.39
2022-11-14T02:41:44.674Z,99608.11
2022-11-14T02:43:05.355Z,99607.70
2022-11-14T02:44:25.462Z,99603.01
2022-11-14T02:45:46.978Z,99608.58
2022-11-14T02:47:07.325Z,99603.79
2022-11-14T02:48:28.331Z,99603.26
2022-11-14T02:49:48.892Z,99602.95
2022-11-14T02:51:09.372Z,99604.67
2022-11-14T02:52:29.792Z,99596.30
2022-11-14T02:53:50.307Z,99596.83
2022-11-14T02:55:11.144Z,99592.59
2022-11-14T02:56:31.499Z,99596.86
2022-11-14T02:57:51.904Z,99594.88
2022-11-14T02:59:12.365Z,99599.91
2022-11-14T03:00:32.459Z,99597.27
2022-11-14T03:01:53.245Z,99595.25
2022-11-14T03:03:13.798Z,99594.60
2022-11-14T03:04:34.322Z,99590.86
2022-11-14T03:05:59.917Z,99593.46
2022-11-14T03:07:20.249Z,99594.00
2022-11-14T03:08:40.633Z,99594.49
2022-11-14T03:10:01.040Z,99601.15
2022-11-14T03:11:21.188Z,99597.27
2022-11-14T03:12:41.634Z,99593.61
2022-11-14T03:14:02.134Z,99588.42
2022-11-14T03:15:23.676Z,99586.11
2022-11-14T03:16:43.720Z,99581.67
2022-11-14T03:18:04.095Z,99584.52
2022-11-14T03:19:24.438Z,99577.43
2022-11-14T03:20:45.080Z,99579.95
2022-11-14T03:22:05.532Z,99576.84
2022-11-14T03:23:25.918Z,99576.83
2022-11-14T03:24:46.178Z,99574.84
2022-11-14T03:26:09.288Z,99574.20
2022-11-14T03:27:29.662Z,99574.89
2022-11-14T03:28:49.844Z,99572.61
2022-11-14T03:30:10.895Z,99571.30
2022-11-14T03:31:31.177Z,99571.10
2022-11-14T03:32:51.349Z,99567.17
2022-11-14T03:34:13.646Z,99566.44
2022-11-14T03:35:33.767Z,99563.98
2022-11-14T03:36:54.039Z,99562.96
2022-11-14T03:38:14.446Z,99562.17
2022-11-14T03:39:35.019Z,99561.42
2022-11-14T03:40:58.358Z,99562.57
2022-11-14T03:42:18.543Z,99562.87
2022-11-14T03:43:39.036Z,99565.73
2022-11-14T03:44:59.168Z,99560.08
2022-11-14T03:46:19.413Z,99556.83
2022-11-14T03:47:40.007Z,99557.47
2022-11-14T03:49:00.393Z,99559.27
2022-11-14T03:50:20.478Z,99559.12
2022-11-14T03:51:40.782Z,99559.20
2022-11-14T03:53:01.683Z,99557.66
2022-11-14T03:54:22.208Z,99557.63
2022-11-14T03:55:44.137Z,99555.77
2022-11-14T03:57:04.811Z,99554.98
2022-11-14T03:58:24.972Z,99555.23
2022-11-14T03:59:44.997Z,99548.06
2022-11-14T04:01:05.372Z,99546.08
2022-11-14T04:02:26.028Z,99547.27
2022-11-14T04:03:46.429Z,99549.52
2022-11-14T04:05:07.245Z,99549.38
2022-11-14T04:06:27.367Z,99547.70
2022-11-14T04:07:47.678Z,99547.01
2022-11-14T04:09:08.284Z,99547.41
2022-11-14T04:10:28.775Z,99551.91
2022-11-14T04:11:49.324Z,99551.75
2022-11-14T04:13:09.663Z,99551.71
2022-11-14T04:14:30.086Z,99549.33
2022-11-14T04:15:58.066Z,99544.66
2022-11-14T04:17:18.955Z,99544.84
2022-11-14T04:18:39.577Z,99545.98
2022-11-14T04:20:00.481Z,99545.58
2022-11-14T04:21:21.168Z,99542.80
2022-11-14T04:22:41.374Z,99536.21
2022-11-14T04:24:01.540Z,99534.69
2022-11-14T04:25:21.847Z,99532.55
2022-11-14T04:26:42.356Z,99528.59
2022-11-14T04:28:02.539Z,99528.56
2022-11-14T04:29:23.055Z,99519.12
2022-11-14T04:30:45.136Z,99520.59
2022-11-14T04:32:05.438Z,99522.27
2022-11-14T04:33:25.514Z,99522.64
2022-11-14T04:34:45.889Z,99527.83
2022-11-14T04:36:06.633Z,99529.64
2022-11-14T04:37:26.798Z,99527.83
2022-11-14T04:38:47.577Z,99528.69
2022-11-14T04:40:08.635Z,99532.40
2022-11-14T04:41:28.827Z,99536.48
2022-11-14T04:42:49.416Z,99535.13
2022-11-14T04:44:09.933Z,99530.29
2022-11-14T04:45:30.534Z,99530.88
2022-11-14T04:46:50.853Z,99528.73
2022-11-14T04:48:11.194Z,99533.17
2022-11-14T04:49:31.691Z,99533.86
2022-11-14T04:50:51.898Z,99530.26
2022-11-14T04:52:12.341Z,99526.66
2022-11-14T04:53:32.432Z,99525.39
2022-11-14T04:54:52.820Z,99529.74
2022-11-14T04:56:13.045Z,99535.59
2022-11-14T04:57:33.306Z,99531.25
2022-11-14T04:58:53.728Z,99533.38
2022-11-14T05:00:14.879Z,99542.11
2022-11-14T05:01:35.575Z,99538.02
2022-11-14T05:02:59.182Z,99536.13
2022-11-14T05:04:19.744Z,99530.82
2022-11-14T05:05:42.139Z,99526.41
2022-11-14T05:07:02.853Z,99527.61
2022-11-14T05:08:23.351Z,99524.73
2022-11-14T05:09:43.548Z,99523.83
2022-11-14T05:11:04.352Z,99526.83
2022-11-14T05:12:24.579Z,99525.88
2022-11-14T05:13:45.137Z,99527.84
2022-11-14T05:15:05.871Z,99525.74
2022-11-14T05:16:26.597Z,99521.05
2022-11-14T05:17:46.869Z,99519.63
2022-11-14T05:19:07.529Z,99519.60
2022-11-14T05:20:27.677Z,99520.27
2022-11-14T05:21:48.015Z,99516.95
2022-11-14T05:23:23.900Z,99515.47
2022-11-14T05:24:44.381Z,99518.73
2022-11-14T05:26:10.226Z,99517.66
2022-11-14T05:27:30.642Z,99516.64
2022-11-14T05:28:51.562Z,99514.80
2022-11-14T05:30:12.622Z,99511.00
2022-11-14T05:31:33.251Z,99505.98
2022-11-14T05:32:53.775Z,99506.95
2022-11-14T05:34:14.315Z,99510.51
2022-11-14T05:35:34.491Z,99502.40
2022-11-14T05:36:55.019Z,99507.16
2022-11-14T05:38:15.272Z,99509.17
2022-11-14T05:39:35.821Z,99513.96
2022-11-14T05:40:56.420Z,99513.36
2022-11-14T05:42:16.916Z,99515.21
2022-11-14T05:43:38.170Z,99518.08
2022-11-14T05:44:58.410Z,99522.41
2022-11-14T05:46:18.923Z,99528.05
2022-11-14T05:47:39.281Z,99529.04
2022-11-14T05:48:59.775Z,99529.13
2022-11-14T05:50:19.942Z,99532.76
2022-11-14T05:51:40.321Z,99536.30
2022-11-14T05:53:00.382Z,99534.52
2022-11-14T05:54:20.982Z,99533.48
2022-11-14T05:55:41.044Z,99530.44
2022-11-14T05:57:01.178Z,99535.57
2022-11-14T05:58:22.265Z,99533.30
2022-11-14T05:59:42.634Z,99536.12
2022-11-14T06:01:09.115Z,99538.71
2022-11-14T06:02:29.609Z,99540.44
2022-11-14T06:03:49.976Z,99542.17
2022-11-14T06:05:10.573Z,99538.14
2022-11-14T06:06:30.832Z,99538.92
2022-11-14T06:08:00.104Z,99541.18
2022-11-14T06:09:20.888Z,99542.95
2022-11-14T06:10:41.280Z,99545.17
2022-11-14T06:12:06.085Z,99544.30
2022-11-14T06:13:26.749Z,99543.72
2022-11-14T06:14:46.836Z,99544.09
2022-11-14T06:16:11.301Z,99544.23
2022-11-14T06:17:31.594Z,99542.58
2022-11-14T06:18:54.936Z,99546.41
2022-11-14T06:20:15.927Z,99552.66
2022-11-14T06:21:36.407Z,99546.90
2022-11-14T06:22:56.757Z,99547.86
2022-11-14T06:24:17.205Z,99549.00
2022-11-14T06:25:37.383Z,99547.23
2022-11-14T06:26:57.708Z,99546.70
2022-11-14T06:28:18.157Z,99548.21
2022-11-14T06:29:38.396Z,99551.89
2022-11-14T06:31:01.193Z,99551.72
2022-11-14T06:32:21.625Z,99551.67
2022-11-14T06:33:41.883Z,99548.17
2022-11-14T06:35:02.216Z,99545.41
2022-11-14T06:36:22.915Z,99544.59
2022-11-14T06:37:43.058Z,99545.48
2022-11-14T06:39:03.313Z,99545.48
2022-11-14T06:40:23.756Z,99548.12
2022-11-14T06:41:44.024Z,99547.67
2022-11-14T06:43:04.259Z,99546.66
2022-11-14T06:44:29.707Z,99542.44
2022-11-14T06:45:54.877Z,99543.79
2022-11-14T06:47:15.108Z,99539.83
2022-11-14T06:48:36.173Z,99540.08
2022-11-14T06:49:56.460Z,99543.95
2022-11-14T06:51:18.147Z,99540.73
2022-11-14T06:52:38.521Z,99540.08
2022-11-14T06:53:58.995Z,99538.98
2022-11-14T06:55:24.854Z,99541.04
2022-11-14T06:56:45.911Z,99546.31
2022-11-14T06:58:06.071Z,99550.58
2022-11-14T06:59:26.340Z,99554.36
2022-11-14T07:00:46.538Z,99555.50
2022-11-14T07:02:07.081Z,99549.20
2022-11-14T07:03:27.512Z,99548.98
2022-11-14T07:04:48.036Z,99553.41
2022-11-14T07:06:10.354Z,99553.11
2022-11-14T07:07:30.945Z,99548.35
2022-11-14T07:08:53.416Z,99547.08
2022-11-14T07:10:13.851Z,99549.90
2022-11-14T07:11:35.458Z,99551.73
2022-11-14T07:12:55.611Z,99553.91
2022-11-14T07:14:15.987Z,99554.05
2022-11-14T07:15:36.376Z,99552.98
2022-11-14T07:16:58.048Z,99551.98
2022-11-14T07:18:18.359Z,99543.98
2022-11-14T07:19:38.769Z,99544.92
2022-11-14T07:21:01.715Z,99537.91
2022-11-14T07:22:21.993Z,99535.89
2022-11-14T07:23:42.909Z,99532.23
2022-11-14T07:25:03.430Z,99524.51
2022-11-14T07:26:23.920Z,99527.84
2022-11-14T07:27:43.978Z,99531.91
2022-11-14T07:29:04.687Z,99530.10
2022-11-14T07:30:25.187Z,99528.49
2022-11-14T07:31:45.275Z,99526.19
2022-11-14T07:33:05.694Z,99520.59
2022-11-14T07:34:26.126Z,99516.68
2022-11-14T07:35:46.405Z,99514.34
2022-11-14T07:37:06.448Z,99511.98
2022-11-14T07:38:27.195Z,99515.92
2022-11-14T07:39:47.529Z,99515.64
2022-11-14T07:41:14.267Z,99516.80
2022-11-14T07:42:34.537Z,99519.80
2022-11-14T07:43:55.133Z,99516.85
2022-11-14T07:45:16.208Z,99514.88
2022-11-14T07:46:36.599Z,99519.06
2022-11-14T07:47:58.849Z,99516.06
2022-11-14T07:49:19.466Z,99513.46
2022-11-14T07:50:40.060Z,99514.41
2022-11-14T07:52:00.358Z,99516.67
2022-11-14T07:53:20.663Z,99517.08
2022-11-14T07:54:40.841Z,99514.65
2022-11-14T07:56:09.825Z,99520.18
2022-11-14T07:57:30.025Z,99519.18
2022-11-14T07:58:50.392Z,99521.35
2022-11-14T08:00:11.607Z,99520.64
2022-11-14T08:01:31.895Z,99515.77
2022-11-14T08:02:52.303Z,99511.38
2022-11-14T08:04:12.662Z,99510.45
2022-11-14T08:05:33.642Z,99509.09
2022-11-14T08:06:53.938Z,99514.55
2022-11-14T08:08:14.440Z,99516.04
2022-11-14T08:09:35.278Z,99517.45
2022-11-14T08:10:59.943Z,99520.11
2022-11-14T08:12:21.247Z,99519.98
2022-11-14T08:13:41.683Z,99519.48
2022-11-14T08:15:02.334Z,99519.85
2022-11-14T08:16:22.896Z,99514.07
2022-11-14T08:17:43.153Z,99511.38
2022-11-14T08:19:03.457Z,99506.13
2022-11-14T08:20:23.546Z,99512.27
2022-11-14T08:21:44.801Z,99505.50
2022-11-14T08:23:07.217Z,99500.80
2022-11-14T08:24:27.354Z,99502.11
2022-11-14T08:25:47.704Z,99501.16
2022-11-14T08:27:07.675Z,99496.34
2022-11-14T08:28:28.476Z,99498.83
2022-11-14T08:29:51.108Z,99503.48
2022-11-14T08:31:13.313Z,99500.06
2022-11-14T08:32:33.883Z,99500.55
2022-11-14T08:33:54.119Z,99494.75
2022-11-14T08:35:14.277Z,99493.83
2022-11-14T08:36:34.617Z,99494.63
2022-11-14T08:37:54.942Z,99488.05
2022-11-14T08:39:15.456Z,99484.88
2022-11-14T08:40:35.599Z,99482.05
2022-11-14T08:41:55.736Z,99485.48
2022-11-14T08:43:16.192Z,99485.77
2022-11-14T08:44:36.489Z,99484.88
2022-11-14T08:46:02.209Z,99486.11
2022-11-14T08:47:22.590Z,99482.81
2022-11-14T08:48:43.081Z,99483.55
2022-11-14T08:50:03.488Z,99483.60
2022-11-14T08:51:23.664Z,99480.87
2022-11-14T08:52:48.966Z,99478.71
2022-11-14T08:54:09.343Z,99486.28
2022-11-14T08:55:29.747Z,99481.81
2022-11-14T08:56:50.163Z,99479.09
2022-11-14T08:58:10.557Z,99475.49
2022-11-14T08:59:31.813Z,99475.54
2022-11-14T09:00:52.743Z,99479.30
2022-11-14T09:02:13.824Z,99478.04
2022-11-14T09:03:34.718Z,99476.47
2022-11-14T09:04:55.294Z,99477.55
2022-11-14T09:06:15.399Z,99485.06
2022-11-14T09:07:35.882Z,99479.21
2022-11-14T09:08:56.166Z,99476.02
2022-11-14T09:10:16.675Z,99471.44
2022-11-14T09:11:37.068Z,99473.15
2022-11-14T09:13:01.902Z,99475.67
2022-11-14T09:14:22.139Z,99474.30
2022-11-14T09:15:42.865Z,99470.58
2022-11-14T09:17:05.987Z,99469.27
2022-11-14T09:18:26.705Z,99469.05
2022-11-14T09:19:46.884Z,99465.36
2022-11-14T09:21:08.668Z,99464.73
2022-11-14T09:22:29.132Z,99465.05
2022-11-14T09:23:49.683Z,99462.93
2022-11-14T09:25:10.132Z,99459.80
2022-11-14T09:26:30.439Z,99455.15
2022-11-14T09:27:50.833Z,99455.27
2022-11-14T09:29:10.921Z,99454.05
2022-11-14T09:30:31.499Z,99454.17
2022-11-14T09:31:53.346Z,99456.09
2022-11-14T09:33:13.769Z,99455.54
2022-11-14T09:34:34.127Z,99450.73
2022-11-14T09:36:03.281Z,99447.55
2022-11-14T09:37:24.197Z,99446.39
2022-11-14T09:38:45.555Z,99443.72
2022-11-14T09:40:06.890Z,99445.55
2022-11-14T09:41:39.941Z,99444.99
2022-11-14T09:43:12.183Z,99441.39
2022-11-14T09:44:48.250Z,99438.08
2022-11-14T09:46:22.267Z,99441.83
2022-11-14T09:47:50.756Z,99446.41
2022-11-14T09:49:25.493Z,99445.41
2022-11-14T09:51:05.184Z,99445.70
2022-11-14T09:52:47.636Z,99441.15
2022-11-14T09:54:21.057Z,99443.59
2022-11-14T09:55:41.169Z,99437.20
2022-11-14T09:57:01.624Z,99437.64
2022-11-14T09:58:23.298Z,99434.20
2022-11-14T09:59:43.994Z,99433.27
2022-11-14T10:01:28.570Z,99433.15
2022-11-14T10:03:42.771Z,99426.95
2022-11-14T10:05:25.256Z,99424.80
2022-11-14T10:07:16.011Z,99429.70
2022-11-14T10:08:54.447Z,99434.57
2022-11-14T10:10:26.685Z,99427.65
2022-11-14T10:12:05.583Z,99429.79
2022-11-14T10:13:59.603Z,99423.55
2022-11-14T10:15:34.034Z,99431.48
2022-11-14T10:17:09.249Z,99433.05
2022-11-14T10:19:03.646Z,99431.55
2022-11-14T10:20:29.658Z,99431.52
2022-11-14T10:22:11.192Z,99431.31
2022-11-14T10:23:58.145Z,99420.04
2022-11-14T10:25:55.193Z,99415.83
2022-11-14T10:27:33.507Z,99419.33
2022-11-14T10:29:29.668Z,99418.36
2022-11-14T10:30:53.260Z,99417.28
2022-11-14T10:32:35.302Z,99420.59
2022-11-14T10:34:18.383Z,99423.77
2022-11-14T10:35:53.296Z,99419.35
2022-11-14T10:37:46.574Z,99418.27
2022-11-14T10:39:18.316Z,99421.15
2022-11-14T10:40:46.704Z,99418.73
2022-11-14T10:42:20.230Z,99418.91
2022-11-14T10:43:47.068Z,99419.31
2022-11-14T10:45:10.365Z,99413.11
2022-11-14T10:46:39.679Z,99413.35
2022-11-14T10:48:16.237Z,99413.91
2022-11-14T10:49:38.600Z,99410.73
2022-11-14T10:51:11.942Z,99406.98
2022-11-14T10:52:41.628Z,99402.58
2022-11-14T10:54:23.960Z,99404.11
2022-11-14T10:56:03.578Z,99401.16
2022-11-14T10:57:25.327Z,99402.37
2022-11-14T10:58:48.780Z,99399.65
2022-11-14T11:00:15.736Z,99393.25
2022-11-14T11:01:36.224Z,99392.37
2022-11-14T11:02:57.545Z,99385.79
2022-11-14T11:04:31.038Z,99386.41
2022-11-14T11:05:59.905Z,99384.41
2022-11-14T11:07:43.127Z,99389.27
2022-11-14T11:09:33.548Z,99390.02
2022-11-14T11:11:17.951Z,99384.15
2022-11-14T11:12:48.406Z,99383.88
2022-11-14T11:14:18.285Z,99382.08
2022-11-14T11:15:43.149Z,99378.61
2022-11-14T11:17:12.494Z,99377.56
2022-11-14T11:18:37.066Z,99375.58
2022-11-14T11:20:36.946Z,99370.64
2022-11-14T11:21:57.513Z,99374.59
2022-11-14T11:23:24.200Z,99371.98
2022-11-14T11:24:44.723Z,99364.64
2022-11-14T11:26:15.832Z,99358.86
2022-11-14T11:27:36.265Z,99352.55
2022-11-14T11:29:11.905Z,99350.08
2022-11-14T11:30:32.649Z,99347.77
2022-11-14T11:31:59.811Z,99348.09
2022-11-14T11:33:20.136Z,99351.03
2022-11-14T11:34:40.909Z,99349.63
2022-11-14T11:36:07.056Z,99346.94
2022-11-14T11:37:33.033Z,99345.92
2022-11-14T11:38:53.501Z,99335.59
2022-11-14T11:40:22.648Z,99331.48
2022-11-14T11:42:08.661Z,99329.83
2022-11-14T11:43:45.068Z,99329.85
2022-11-14T11:45:18.113Z,99326.29
2022-11-14T11:46:53.803Z,99327.64
2022-11-14T11:48:20.166Z,99334.70
2022-11-14T11:49:54.215Z,99338.04
2022-11-14T11:51:26.885Z,99341.87
2022-11-14T11:53:12.711Z,99341.97
2022-11-14T11:54:56.933Z,99338.80
2022-11-14T11:56:26.393Z,99332.73
2022-11-14T11:57:57.884Z,99331.54
2022-11-14T11:59:36.888Z,99331.18
2022-11-14T12:00:56.996Z,99332.80
2022-11-14T12:02:26.924Z,99331.81
2022-11-14T12:03:51.357Z,99326.16
2022-11-14T12:05:36.546Z,99323.75
2022-11-14T12:07:11.902Z,99324.55
2022-11-14T12:08:47.875Z,99323.83
2022-11-14T12:10:18.847Z,99323.09
2022-11-14T12:11:45.314Z,99321.63
2022-11-14T12:13:42.211Z,99326.67
2022-11-14T12:15:24.438Z,99327.33
2022-11-14T12:17:21.509Z,99329.16
2022-11-14T12:18:53.702Z,99328.25
2022-11-14T12:20:36.160Z,99331.81
2022-11-14T12:22:11.421Z,99328.36
2022-11-14T12:23:52.544Z,99326.54
2022-11-14T12:25:39.743Z,99322.92
2022-11-14T12:27:24.625Z,99318.67
2022-11-14T12:29:03.441Z,99315.40
2022-11-14T12:30:26.909Z,99311.61
2022-11-14T12:31:51.926Z,99314.41
2022-11-14T12:33:44.818Z,99311.57
2022-11-14T12:35:16.845Z,99305.87
2022-11-14T12:36:43.064Z,99305.92
2022-11-14T12:38:13.272Z,99301.80
2022-11-14T12:39:33.846Z,99303.68
2022-11-14T12:40:58.467Z,99299.37
2022-11-14T12:42:21.725Z,99299.63
2022-11-14T12:43:43.352Z,99296.51
2022-11-14T12:45:04.232Z,99299.89
2022-11-14T12:46:24.626Z,99302.79
2022-11-14T12:48:23.301Z,99294.86
2022-11-14T12:49:52.853Z,99291.75
2022-11-14T12:51:24.761Z,99295.36
2022-11-14T12:52:54.192Z,99288.77
2022-11-14T12:54:49.262Z,99288.02
2022-11-14T12:56:52.621Z,99286.62
2022-11-14T12:58:32.397Z,99289.61
2022-11-14T13:00:04.727Z,99288.41
2022-11-14T13:01:46.750Z,99287.31
2022-11-14T13:03:41.119Z,99286.75
2022-11-14T13:05:21.357Z,99286.69
2022-11-14T13:07:00.240Z,99281.20
2022-11-14T13:08:45.541Z,99282.39
2022-11-14T13:10:29.385Z,99280.20
2022-11-14T13:12:08.611Z,99277.17
2022-11-14T13:13:47.867Z,99276.04
2022-11-14T13:15:51.700Z,99268.52
2022-11-14T13:17:36.544Z,99265.48
2022-11-14T13:19:37.495Z,99268.76
2022-11-14T13:21:23.906Z,99273.98
2022-11-14T13:22:46.655Z,99277.39
2022-11-14T13:24:08.207Z,99269.20
2022-11-14T13:25:28.807Z,99270.90
2022-11-14T13:26:52.389Z,99272.91
2022-11-14T13:28:37.664Z,99271.97
2022-11-14T13:30:01.926Z,99275.55
2022-11-14T13:31:45.269Z,99272.76
2022-11-14T13:33:06.320Z,99275.30
2022-11-14T13:34:33.316Z,99269.85
2022-11-14T13:36:02.141Z,99270.73
2022-11-14T13:37:58.661Z,99266.63
2022-11-14T13:39:21.555Z,99268.27
2022-11-14T13:40:44.965Z,99266.77
2022-11-14T13:42:33.889Z,99265.73
2022-11-14T13:44:07.504Z,99264.27
2022-11-14T13:45:42.856Z,99265.71
2022-11-14T13:47:39.043Z,99266.66
2022-11-14T13:49:29.372Z,99263.02
2022-11-14T13:51:06.270Z,99262.93
2022-11-14T13:52:45.592Z,99260.70
2022-11-14T13:54:17.527Z,99255.48
2022-11-14T13:55:57.830Z,99254.48
2022-11-14T13:57:46.956Z,99254.91
2022-11-14T13:59:35.014Z,99253.98
2022-11-14T14:01:16.373Z,99254.16
2022-11-14T14:02:48.866Z,99256.38
2022-11-14T14:04:27.342Z,99256.16
2022-11-14T14:06:15.474Z,99256.33
2022-11-14T14:08:00.774Z,99257.30
2022-11-14T14:09:32.641Z,99250.67
2022-11-14T14:11:26.080Z,99255.53
2022-11-14T14:13:08.096Z,99250.59
2022-11-14T14:14:54.724Z,99251.21
2022-11-14T14:16:33.559Z,99247.00
2022-11-14T14:18:23.835Z,99243.73
2022-11-14T14:19:57.159Z,99238.96
2022-11-14T14:21:29.352Z,99240.31
2022-11-14T14:22:59.034Z,99236.14
2022-11-14T14:25:03.860Z,99235.06
2022-11-14T14:26:56.443Z,99231.20
2022-11-14T14:29:04.897Z,99227.11
2022-11-14T14:30:26.554Z,99221.60
2022-11-14T14:31:47.080Z,99224.66
2022-11-14T14:33:07.610Z,99228.97
2022-11-14T14:34:30.998Z,99226.64
2022-11-14T14:35:53.817Z,99224.53
2022-11-14T14:37:23.092Z,99219.77
2022-11-14T14:38:44.220Z,99217.59
2022-11-14T14:40:08.876Z,99214.04
2022-11-14T14:41:32.536Z,99211.90
2022-11-14T14:42:54.968Z,99209.70
2022-11-14T14:44:32.175Z,99208.84
2022-11-14T14:45:54.456Z,99205.27
2022-11-14T14:47:15.773Z,99201.77
2022-11-14T14:48:42.484Z,99202.10
2022-11-14T14:50:13.125Z,99203.68
2022-11-14T14:51:38.009Z,99204.17
2022-11-14T14:53:00.995Z,99204.74
2022-11-14T14:54:28.880Z,99200.83
2022-11-14T14:55:53.305Z,99205.05
2022-11-14T14:57:19.671Z,99202.95
2022-11-14T14:58:42.771Z,99203.60
2022-11-14T15:00:16.852Z,99203.63
2022-11-14T15:01:37.135Z,99205.50
2022-11-14T15:02:57.973Z,99207.08
2022-11-14T15:04:20.983Z,99209.53
2022-11-14T15:05:41.641Z,99210.61
2022-11-14T15:07:04.355Z,99208.92
2022-11-14T15:08:27.811Z,99208.41
2022-11-14T15:09:57.215Z,99209.30
2022-11-14T15:11:17.945Z,99210.23
2022-11-14T15:12:42.136Z,99203.33
2022-11-14T15:14:04.433Z,99204.54
2022-11-14T15:15:27.010Z,99206.02
2022-11-14T15:16:50.981Z,99202.20
2022-11-14T15:18:39.583Z,99203.79
2022-11-14T15:20:00.064Z,99202.88
2022-11-14T15:21:20.342Z,99205.23
2022-11-14T15:22:40.640Z,99200.09
2022-11-14T15:24:13.137Z,99200.75
2022-11-14T15:25:34.104Z,99198.31
2022-11-14T15:26:54.762Z,99193.94
2022-11-14T15:28:21.277Z,99194.77
2022-11-14T15:29:51.827Z,99194.64
2022-11-14T15:31:22.512Z,99193.52
2022-11-14T15:32:48.969Z,99194.56
2022-11-14T15:34:31.662Z,99192.31
2022-11-14T15:36:13.600Z,99187.98
2022-11-14T15:37:33.987Z,99185.57
2022-11-14T15:39:05.984Z,99188.52
2022-11-14T15:40:26.465Z,99182.02
2022-11-14T15:41:46.835Z,99179.98
2022-11-14T15:43:35.543Z,99179.52
2022-11-14T15:44:56.714Z,99177.74
2022-11-14T15:46:35.699Z,99183.79
2022-11-14T15:48:11.497Z,99175.63
2022-11-14T15:49:31.865Z,99173.18
2022-11-14T15:50:52.504Z,99166.65
2022-11-14T15:52:24.973Z,99166.77
2022-11-14T15:53:50.314Z,99165.91
2022-11-14T15:55:19.523Z,99163.52
2022-11-14T15:56:39.571Z,99162.80
2022-11-14T15:58:26.670Z,99158.77
2022-11-14T15:59:40.609Z,99160.57
2022-11-14T16:01:01.115Z,99158.89
2022-11-14T16:02:29.495Z,99156.45
2022-11-14T16:03:51.642Z,99158.09
2022-11-14T16:05:16.829Z,99159.09
2022-11-14T16:06:37.260Z,99159.74
2022-11-14T16:07:57.998Z,99159.83
2022-11-14T16:09:21.495Z,99155.76
2022-11-14T16:10:42.058Z,99154.60
2022-11-14T16:12:02.472Z,99150.54
2022-11-14T16:13:22.740Z,99151.35
2022-11-14T16:14:43.213Z,99150.63
2022-11-14T16:16:03.773Z,99149.89
2022-11-14T16:17:24.152Z,99146.75
2022-11-14T16:18:44.669Z,99143.52
2022-11-14T16:20:06.967Z,99140.98
2022-11-14T16:21:27.443Z,99140.09
2022-11-14T16:22:49.872Z,99134.70
2022-11-14T16:24:19.763Z,99131.69
2022-11-14T16:25:40.209Z,99129.67
2022-11-14T16:27:00.414Z,99127.61
2022-11-14T16:28:20.688Z,99127.91
2022-11-14T16:29:41.220Z,99125.52
2022-11-14T16:31:01.581Z,99122.10
2022-11-14T16:32:23.503Z,99121.89
2022-11-14T16:33:43.877Z,99117.25
2022-11-14T16:35:04.634Z,99110.84
2022-11-14T16:36:25.540Z,99110.66
2022-11-14T16:37:47.392Z,99114.04
2022-11-14T16:39:11.332Z,99113.30
2022-11-14T16:40:31.427Z,99109.73
2022-11-14T16:41:51.844Z,99110.96
2022-11-14T16:43:14.978Z,99109.61
2022-11-14T16:44:41.794Z,99115.68
2022-11-14T16:46:07.689Z,99120.42
2022-11-14T16:47:28.437Z,99120.27